Time;durP1;ratioP1;P1;durP2;ratioP2;P2;SDS_P1;SDS_P2;PMS_P1;PMS_P2;Temp;Humidity;BMP_temperature;BMP_pressure;BME280_temperature;BME280_humidity;BME280_pressure;Samples;Min_cycle;Max_cycle;Signal;HPM_P1;HPM_P2
2023/03/30 00:02:22;;;;;;;5.37;4.30;;;;;;;;;;4999988;28;20477;-70
2023/03/30 00:04:49;;;;;;;5.30;4.80;;;;;;;;;;4997338;28;20453;-70
2023/03/30 00:07:18;;;;;;;12.60;4.63;;;;;;;;;;4996896;28;20444;-70
2023/03/30 00:09:45;;;;;;;4.50;4.10;;;;;;;;;;5006620;28;20455;-71
2023/03/30 00:12:14;;;;;;;7.73;4.50;;;;;;;;;;5016297;28;20787;-70
2023/03/30 00:14:41;;;;;;;4.90;4.10;;;;;;;;;;5016209;28;20444;-70
2023/03/30 00:17:09;;;;;;;5.83;4.67;;;;;;;;;;5016012;28;20450;-70
2023/03/30 00:19:37;;;;;;;4.30;3.70;;;;;;;;;;5016437;28;20448;-70
2023/03/30 00:22:04;;;;;;;8.10;4.23;;;;;;;;;;5016269;28;20495;-69
2023/03/30 00:24:33;;;;;;;7.67;3.70;;;;;;;;;;5015572;28;20456;-70
2023/03/30 00:27:00;;;;;;;5.00;3.47;;;;;;;;;;5016207;28;20783;-70
2023/03/30 00:29:27;;;;;;;7.17;4.40;;;;;;;;;;5016195;28;20439;-70
2023/03/30 00:31:55;;;;;;;6.73;4.17;;;;;;;;;;5016244;28;21006;-70
2023/03/30 00:34:22;;;;;;;7.47;3.80;;;;;;;;;;5015886;28;20529;-69
2023/03/30 00:36:52;;;;;;;5.10;3.10;;;;;;;;;;5016779;28;20434;-70
2023/03/30 00:39:21;;;;;;;5.10;3.53;;;;;;;;;;5016124;28;20473;-70
2023/03/30 00:41:51;;;;;;;6.40;3.50;;;;;;;;;;5015895;28;20456;-70
2023/03/30 00:44:36;;;;;;;7.83;3.93;;;;;;;;;;5015595;28;20913;-70
2023/03/30 00:47:04;;;;;;;4.73;3.80;;;;;;;;;;5015503;28;20463;-70
2023/03/30 00:49:33;;;;;;;4.90;3.50;;;;;;;;;;5016675;28;20776;-69
2023/03/30 00:52:01;;;;;;;6.23;3.80;;;;;;;;;;5016037;28;20918;-70
2023/03/30 00:54:28;;;;;;;4.30;3.40;;;;;;;;;;5015628;28;21035;-70
2023/03/30 00:56:57;;;;;;;5.07;3.20;;;;;;;;;;5015500;28;20453;-71
2023/03/30 00:59:24;;;;;;;8.73;3.50;;;;;;;;;;5015314;28;20455;-69
2023/03/30 01:01:51;;;;;;;6.00;3.47;;;;;;;;;;5014860;28;20465;-70
2023/03/30 01:04:19;;;;;;;5.13;3.40;;;;;;;;;;4996171;28;20447;-69
2023/03/30 01:06:47;;;;;;;4.30;3.53;;;;;;;;;;4996055;28;20540;-70
2023/03/30 01:09:15;;;;;;;5.53;2.70;;;;;;;;;;5001405;28;20860;-70
2023/03/30 01:11:44;;;;;;;5.17;2.97;;;;;;;;;;5015162;28;20534;-70
2023/03/30 01:14:15;;;;;;;3.50;3.13;;;;;;;;;;5014894;28;20526;-69
2023/03/30 01:16:44;;;;;;;4.87;3.33;;;;;;;;;;5015755;28;20427;-69
2023/03/30 01:19:22;;;;;;;6.57;3.23;;;;;;;;;;5015218;28;20814;-70
2023/03/30 01:22:18;;;;;;;4.17;2.97;;;;;;;;;;5015641;28;20443;-69
2023/03/30 01:25:01;;;;;;;11.13;3.57;;;;;;;;;;5015571;28;20433;-70
2023/03/30 01:27:44;;;;;;;7.37;3.60;;;;;;;;;;5014813;28;20910;-69
2023/03/30 01:30:27;;;;;;;4.30;3.03;;;;;;;;;;5014925;28;20459;-70
2023/03/30 01:33:15;;;;;;;4.93;3.17;;;;;;;;;;5014917;28;20496;-69
2023/03/30 01:35:57;;;;;;;3.77;3.00;;;;;;;;;;5009500;28;20563;-70
2023/03/30 01:38:46;;;;;;;7.03;3.50;;;;;;;;;;5015289;28;20428;-70
2023/03/30 01:41:21;;;;;;;8.23;3.60;;;;;;;;;;4990405;28;20941;-70
2023/03/30 01:43:51;;;;;;;7.47;3.37;;;;;;;;;;5014465;28;20518;-70
2023/03/30 01:46:24;;;;;;;6.27;3.20;;;;;;;;;;5014791;28;20452;-70
2023/03/30 01:48:56;;;;;;;5.27;3.10;;;;;;;;;;5014992;28;20772;-69
2023/03/30 01:51:27;;;;;;;6.10;3.50;;;;;;;;;;5014379;28;20445;-69
2023/03/30 01:53:57;;;;;;;6.73;3.80;;;;;;;;;;5014397;28;20495;-70
2023/03/30 01:56:28;;;;;;;7.47;3.00;;;;;;;;;;5014354;28;20455;-69
2023/03/30 01:58:57;;;;;;;4.07;2.70;;;;;;;;;;5014503;28;20439;-70
2023/03/30 02:01:26;;;;;;;5.83;3.17;;;;;;;;;;5015013;28;20464;-69
2023/03/30 02:03:54;;;;;;;6.40;2.53;;;;;;;;;;4997754;28;20458;-70
2023/03/30 02:06:24;;;;;;;9.27;3.70;;;;;;;;;;4994477;28;20450;-70
2023/03/30 02:08:53;;;;;;;8.10;2.80;;;;;;;;;;4997477;28;20485;-70
2023/03/30 02:11:22;;;;;;;7.53;2.90;;;;;;;;;;4994748;28;20868;-69
2023/03/30 02:13:52;;;;;;;9.07;4.13;;;;;;;;;;4994750;28;20477;-69
2023/03/30 02:16:22;;;;;;;9.53;2.90;;;;;;;;;;4994790;28;20530;-70
2023/03/30 02:18:50;;;;;;;4.90;2.60;;;;;;;;;;4994863;28;20434;-69
2023/03/30 02:21:17;;;;;;;2.80;2.23;;;;;;;;;;4995015;28;20446;-69
2023/03/30 02:23:46;;;;;;;3.20;2.80;;;;;;;;;;4994726;28;20462;-70
2023/03/30 02:26:14;;;;;;;5.70;3.03;;;;;;;;;;4994278;28;20446;-69
2023/03/30 02:28:41;;;;;;;5.57;3.20;;;;;;;;;;4994084;28;20442;-70
2023/03/30 02:31:13;;;;;;;5.87;3.03;;;;;;;;;;4994457;28;20541;-70
2023/03/30 02:33:44;;;;;;;5.73;2.80;;;;;;;;;;4993864;28;20967;-70
2023/03/30 02:36:24;;;;;;;5.70;3.10;;;;;;;;;;4994022;28;20481;-69
2023/03/30 02:39:06;;;;;;;2.80;2.50;;;;;;;;;;4994304;28;20435;-69
2023/03/30 02:41:40;;;;;;;5.70;2.57;;;;;;;;;;4994722;28;20435;-69
2023/03/30 02:44:13;;;;;;;3.30;3.00;;;;;;;;;;4994300;28;20435;-69
2023/03/30 02:46:55;;;;;;;4.60;2.63;;;;;;;;;;4994333;28;20434;-69
2023/03/30 02:49:27;;;;;;;6.57;3.07;;;;;;;;;;4994281;28;20785;-69
2023/03/30 02:51:56;;;;;;;4.37;3.27;;;;;;;;;;4994223;28;20438;-69
2023/03/30 02:54:27;;;;;;;6.47;3.00;;;;;;;;;;4993730;28;20488;-69
2023/03/30 02:56:58;;;;;;;4.30;2.80;;;;;;;;;;4994295;28;20442;-69
2023/03/30 02:59:28;;;;;;;4.30;2.57;;;;;;;;;;4994101;28;20448;-70
2023/03/30 03:01:59;;;;;;;4.07;2.97;;;;;;;;;;4997570;28;20818;-71
2023/03/30 03:04:28;;;;;;;5.57;4.27;;;;;;;;;;4993861;28;21023;-69
2023/03/30 03:06:55;;;;;;;8.90;2.90;;;;;;;;;;4994201;28;20485;-69
2023/03/30 03:09:24;;;;;;;13.23;3.30;;;;;;;;;;5000839;28;20469;-69
2023/03/30 03:11:52;;;;;;;3.90;2.90;;;;;;;;;;5013381;28;20994;-70
2023/03/30 03:14:19;;;;;;;10.80;3.93;;;;;;;;;;5013405;28;20575;-70
2023/03/30 03:16:47;;;;;;;4.33;2.90;;;;;;;;;;5013522;28;20953;-69
2023/03/30 03:19:15;;;;;;;4.40;2.83;;;;;;;;;;5013283;28;20447;-69
2023/03/30 03:21:43;;;;;;;3.37;2.87;;;;;;;;;;5013248;28;20448;-69
2023/03/30 03:24:12;;;;;;;5.20;2.67;;;;;;;;;;5013321;28;20468;-70
2023/03/30 03:26:39;;;;;;;5.43;3.10;;;;;;;;;;5013446;28;20441;-69
2023/03/30 03:29:06;;;;;;;5.90;3.30;;;;;;;;;;5012998;28;20449;-69
2023/03/30 03:31:34;;;;;;;5.17;3.77;;;;;;;;;;5013646;28;20536;-70
2023/03/30 03:34:01;;;;;;;6.60;3.00;;;;;;;;;;5013164;28;20885;-70
2023/03/30 03:36:31;;;;;;;4.43;2.70;;;;;;;;;;5013440;28;20974;-69
2023/03/30 03:38:58;;;;;;;9.80;2.77;;;;;;;;;;5013034;28;20456;-69
2023/03/30 03:41:26;;;;;;;5.93;3.80;;;;;;;;;;5012870;28;20485;-69
2023/03/30 03:43:53;;;;;;;4.97;2.60;;;;;;;;;;5008517;28;20458;-69
2023/03/30 03:46:20;;;;;;;3.50;2.80;;;;;;;;;;4993374;28;20453;-69
2023/03/30 03:48:47;;;;;;;3.20;2.50;;;;;;;;;;4993314;28;20464;-69
2023/03/30 03:51:14;;;;;;;5.10;2.97;;;;;;;;;;4993215;28;20442;-69
2023/03/30 03:53:43;;;;;;;5.07;3.13;;;;;;;;;;4993021;28;20447;-69
2023/03/30 03:56:11;;;;;;;5.27;3.10;;;;;;;;;;4993389;28;20464;-69
2023/03/30 03:58:38;;;;;;;5.47;3.03;;;;;;;;;;4992986;28;20926;-68
2023/03/30 04:01:05;;;;;;;6.40;2.77;;;;;;;;;;4996776;28;20552;-69
2023/03/30 04:03:34;;;;;;;3.00;2.40;;;;;;;;;;4997292;28;20446;-70
2023/03/30 04:06:02;;;;;;;5.13;3.30;;;;;;;;;;4996806;28;20557;-69
2023/03/30 04:08:29;;;;;;;2.97;2.70;;;;;;;;;;4996617;28;20443;-69
2023/03/30 04:11:06;;;;;;;9.27;3.10;;;;;;;;;;4996460;28;20469;-69
2023/03/30 04:13:33;;;;;;;7.17;3.30;;;;;;;;;;4996864;28;20520;-69
2023/03/30 04:16:01;;;;;;;11.73;3.57;;;;;;;;;;4996803;28;20538;-68
2023/03/30 04:18:30;;;;;;;5.60;2.70;;;;;;;;;;4996798;28;20468;-69
2023/03/30 04:20:58;;;;;;;6.00;2.90;;;;;;;;;;4996447;28;20478;-69
2023/03/30 04:23:30;;;;;;;3.53;2.90;;;;;;;;;;4996274;28;20447;-68
2023/03/30 04:26:00;;;;;;;6.83;2.70;;;;;;;;;;4996004;28;20986;-69
2023/03/30 04:28:28;;;;;;;5.87;2.30;;;;;;;;;;4996487;28;20438;-68
2023/03/30 04:30:58;;;;;;;5.60;2.43;;;;;;;;;;4996708;28;20465;-75
2023/03/30 04:33:26;;;;;;;4.50;2.13;;;;;;;;;;4997097;28;20437;-72
2023/03/30 04:35:53;;;;;;;6.20;2.37;;;;;;;;;;4995843;28;20494;-72
2023/03/30 04:38:22;;;;;;;4.27;2.73;;;;;;;;;;4996091;28;20455;-73
2023/03/30 04:40:49;;;;;;;4.57;2.40;;;;;;;;;;4996315;28;20450;-73
2023/03/30 04:43:18;;;;;;;8.50;2.80;;;;;;;;;;4996286;28;20459;-73
2023/03/30 04:45:49;;;;;;;7.43;2.50;;;;;;;;;;4995922;28;20452;-73
2023/03/30 04:48:16;;;;;;;10.80;3.30;;;;;;;;;;4996041;28;20449;-73
2023/03/30 04:50:43;;;;;;;7.20;2.37;;;;;;;;;;4996020;28;20447;-72
2023/03/30 04:53:11;;;;;;;3.00;2.40;;;;;;;;;;4995947;28;20542;-73
2023/03/30 04:55:38;;;;;;;3.37;2.30;;;;;;;;;;4995905;28;20482;-73
2023/03/30 04:58:05;;;;;;;5.93;2.70;;;;;;;;;;4995711;28;20929;-73
2023/03/30 05:00:34;;;;;;;3.87;2.43;;;;;;;;;;4995633;28;20901;-73
2023/03/30 05:03:01;;;;;;;2.90;2.00;;;;;;;;;;4996038;28;20530;-73
2023/03/30 05:05:28;;;;;;;4.57;2.73;;;;;;;;;;4996647;28;20566;-73
2023/03/30 05:07:56;;;;;;;3.83;2.40;;;;;;;;;;4995644;28;20461;-72
2023/03/30 05:10:23;;;;;;;4.83;3.00;;;;;;;;;;4994657;28;20451;-72
2023/03/30 05:12:54;;;;;;;3.73;2.30;;;;;;;;;;4995203;28;20929;-71
2023/03/30 05:15:21;;;;;;;3.37;2.53;;;;;;;;;;4995170;28;20478;-72
2023/03/30 05:17:50;;;;;;;4.13;2.70;;;;;;;;;;4995364;28;20450;-72
2023/03/30 05:20:17;;;;;;;4.90;2.47;;;;;;;;;;4995615;28;20447;-71
2023/03/30 05:22:45;;;;;;;6.03;2.40;;;;;;;;;;5006461;28;20651;-72
2023/03/30 05:25:13;;;;;;;5.07;3.00;;;;;;;;;;5014003;28;20465;-72
2023/03/30 05:27:40;;;;;;;6.17;2.90;;;;;;;;;;5014263;28;20526;-71
2023/03/30 05:30:08;;;;;;;6.07;3.00;;;;;;;;;;5014825;28;20543;-71
2023/03/30 05:32:35;;;;;;;6.93;2.87;;;;;;;;;;5014686;28;20446;-71
2023/03/30 05:35:04;;;;;;;5.13;3.57;;;;;;;;;;5014480;28;20840;-71
2023/03/30 05:37:31;;;;;;;4.73;2.80;;;;;;;;;;5014359;28;20438;-71
2023/03/30 05:39:58;;;;;;;4.50;2.90;;;;;;;;;;5015096;28;20446;-72
2023/03/30 05:42:26;;;;;;;4.03;3.07;;;;;;;;;;5014698;28;20450;-71
2023/03/30 05:44:53;;;;;;;8.73;3.13;;;;;;;;;;5014406;28;20453;-71
2023/03/30 05:47:20;;;;;;;6.10;2.33;;;;;;;;;;5013731;28;20442;-71
2023/03/30 05:49:47;;;;;;;2.63;2.43;;;;;;;;;;5014193;28;20963;-71
2023/03/30 05:52:16;;;;;;;4.57;3.40;;;;;;;;;;5014329;28;20757;-71
2023/03/30 05:54:43;;;;;;;7.00;3.37;;;;;;;;;;5014380;28;20494;-71
2023/03/30 05:57:10;;;;;;;5.20;2.80;;;;;;;;;;5013854;28;20537;-71
2023/03/30 05:59:38;;;;;;;11.03;3.10;;;;;;;;;;5014292;28;20906;-71
2023/03/30 06:02:07;;;;;;;9.53;2.67;;;;;;;;;;5014331;28;21002;-71
2023/03/30 06:04:35;;;;;;;4.50;2.73;;;;;;;;;;5014076;28;20515;-71
2023/03/30 06:07:02;;;;;;;8.47;2.40;;;;;;;;;;5013839;28;20485;-71
2023/03/30 06:09:30;;;;;;;5.63;3.27;;;;;;;;;;5014132;28;20468;-71
2023/03/30 06:11:59;;;;;;;5.03;2.40;;;;;;;;;;5014025;28;20500;-71
2023/03/30 06:14:26;;;;;;;6.63;3.17;;;;;;;;;;5014101;28;20855;-71
2023/03/30 06:16:53;;;;;;;4.03;2.80;;;;;;;;;;5014317;28;20447;-72
2023/03/30 06:19:21;;;;;;;4.83;2.87;;;;;;;;;;5014155;28;20876;-71
2023/03/30 06:21:48;;;;;;;3.10;2.57;;;;;;;;;;5013367;28;20537;-70
2023/03/30 06:24:15;;;;;;;5.67;2.87;;;;;;;;;;5013903;28;20439;-71
2023/03/30 06:26:44;;;;;;;4.50;2.43;;;;;;;;;;5013276;28;21016;-73
2023/03/30 06:29:11;;;;;;;7.47;3.10;;;;;;;;;;5013746;28;20443;-72
2023/03/30 06:31:38;;;;;;;6.10;2.70;;;;;;;;;;5013647;28;20442;-72
2023/03/30 06:34:05;;;;;;;4.87;2.47;;;;;;;;;;5013310;28;20464;-71
2023/03/30 06:36:32;;;;;;;4.67;2.63;;;;;;;;;;5014030;28;20910;-72
2023/03/30 06:39:00;;;;;;;5.63;2.83;;;;;;;;;;5013714;28;20530;-72
2023/03/30 06:41:27;;;;;;;5.70;2.90;;;;;;;;;;5013791;28;20447;-72
2023/03/30 06:43:55;;;;;;;6.60;2.50;;;;;;;;;;5013420;28;20439;-72
2023/03/30 06:46:22;;;;;;;5.70;2.50;;;;;;;;;;5013952;28;20907;-72
2023/03/30 06:48:50;;;;;;;2.97;2.33;;;;;;;;;;5013556;28;20811;-71
2023/03/30 06:51:18;;;;;;;3.20;2.40;;;;;;;;;;5013141;28;20948;-72
2023/03/30 06:53:46;;;;;;;4.10;2.50;;;;;;;;;;5013176;28;20454;-72
2023/03/30 06:56:13;;;;;;;3.47;2.77;;;;;;;;;;5013698;28;20488;-72
2023/03/30 06:58:40;;;;;;;5.47;2.83;;;;;;;;;;5013392;28;20537;-72
2023/03/30 07:01:13;;;;;;;5.60;2.43;;;;;;;;;;5013154;28;20457;-72
2023/03/30 07:03:41;;;;;;;3.60;2.57;;;;;;;;;;5013297;28;20872;-73
2023/03/30 07:06:09;;;;;;;8.10;2.90;;;;;;;;;;5013665;28;20517;-74
2023/03/30 07:08:36;;;;;;;5.40;2.50;;;;;;;;;;5013112;28;20446;-71
2023/03/30 07:11:04;;;;;;;7.27;2.90;;;;;;;;;;5013315;28;20468;-72
2023/03/30 07:13:31;;;;;;;8.40;2.30;;;;;;;;;;5012791;28;20446;-72
2023/03/30 07:15:58;;;;;;;4.50;2.47;;;;;;;;;;5013270;28;20496;-72
2023/03/30 07:18:27;;;;;;;3.10;2.47;;;;;;;;;;5012955;28;20539;-72
2023/03/30 07:20:54;;;;;;;3.77;2.50;;;;;;;;;;5013290;28;20982;-72
2023/03/30 07:23:21;;;;;;;3.60;2.20;;;;;;;;;;5012907;28;20439;-71
2023/03/30 07:25:50;;;;;;;7.40;3.10;;;;;;;;;;5013259;28;20449;-71
2023/03/30 07:28:17;;;;;;;4.30;2.13;;;;;;;;;;5012843;28;20461;-71
2023/03/30 07:30:44;;;;;;;8.93;2.67;;;;;;;;;;5012836;28;20453;-70
2023/03/30 07:33:13;;;;;;;9.10;2.67;;;;;;;;;;5012855;28;20438;-70
2023/03/30 07:35:45;;;;;;;6.70;2.23;;;;;;;;;;5016367;28;20502;-70
2023/03/30 07:38:12;;;;;;;8.73;3.07;;;;;;;;;;5016682;28;20931;-69
2023/03/30 07:40:39;;;;;;;2.90;2.13;;;;;;;;;;5016965;28;20533;-69
2023/03/30 07:43:06;;;;;;;10.90;2.33;;;;;;;;;;5016734;28;20672;-70
2023/03/30 07:45:34;;;;;;;9.10;2.63;;;;;;;;;;4998972;28;20446;-70
2023/03/30 07:48:01;;;;;;;3.10;2.80;;;;;;;;;;4996461;28;20953;-70
2023/03/30 07:50:29;;;;;;;4.57;2.27;;;;;;;;;;4996839;28;20445;-70
2023/03/30 07:52:58;;;;;;;4.93;2.60;;;;;;;;;;4997337;28;20476;-70
2023/03/30 07:55:27;;;;;;;2.70;2.43;;;;;;;;;;4997181;28;20493;-70
2023/03/30 07:57:54;;;;;;;3.27;2.50;;;;;;;;;;4996549;28;21039;-71
2023/03/30 08:00:22;;;;;;;3.30;2.47;;;;;;;;;;4997232;28;20447;-69
2023/03/30 08:02:49;;;;;;;3.73;2.37;;;;;;;;;;4996894;28;20443;-69
2023/03/30 08:05:17;;;;;;;5.40;2.73;;;;;;;;;;4997106;28;20453;-69
2023/03/30 08:07:45;;;;;;;4.47;3.10;;;;;;;;;;4996560;28;20484;-69
2023/03/30 08:10:13;;;;;;;4.00;3.00;;;;;;;;;;4996616;28;20450;-69
2023/03/30 08:12:41;;;;;;;9.50;3.17;;;;;;;;;;4996350;28;20453;-69
2023/03/30 08:15:08;;;;;;;4.77;2.80;;;;;;;;;;4996104;28;20939;-69
2023/03/30 08:17:36;;;;;;;4.00;2.60;;;;;;;;;;4996417;28;20968;-69
2023/03/30 08:20:09;;;;;;;5.60;3.03;;;;;;;;;;4996652;28;20439;-70
2023/03/30 08:22:36;;;;;;;6.13;2.90;;;;;;;;;;4996611;28;20442;-70
2023/03/30 08:25:04;;;;;;;4.20;2.80;;;;;;;;;;4996642;28;20442;-70
2023/03/30 08:27:32;;;;;;;9.37;3.53;;;;;;;;;;4996029;28;20446;-71
2023/03/30 08:29:59;;;;;;;4.60;2.47;;;;;;;;;;4996230;28;20458;-68
2023/03/30 08:32:27;;;;;;;5.73;3.00;;;;;;;;;;4995976;28;20974;-80
2023/03/30 08:34:54;;;;;;;10.60;3.40;;;;;;;;;;4995918;28;20988;-70
2023/03/30 08:37:21;;;;;;;4.27;2.50;;;;;;;;;;4996102;28;20825;-69
2023/03/30 08:39:48;;;;;;;5.67;2.97;;;;;;;;;;4995928;28;20447;-69
2023/03/30 08:42:36;;;;;;;5.20;3.53;;;;;;;;;;4996229;28;20483;-70
2023/03/30 08:45:09;;;;;;;5.90;3.53;;;;;;;;;;4990943;28;20876;-71
2023/03/30 08:47:38;;;;;;;10.03;3.47;;;;;;;;;;4995909;28;20431;-73
2023/03/30 08:50:08;;;;;;;7.03;3.10;;;;;;;;;;4995816;28;20448;-70
2023/03/30 08:52:36;;;;;;;4.40;3.70;;;;;;;;;;4996341;28;20434;-70
2023/03/30 08:55:03;;;;;;;8.93;3.23;;;;;;;;;;5012776;28;21000;-71
2023/03/30 08:57:35;;;;;;;8.63;2.70;;;;;;;;;;5015006;28;20797;-71
2023/03/30 09:00:13;;;;;;;6.43;3.77;;;;;;;;;;5015001;28;20529;-71
2023/03/30 09:02:42;;;;;;;6.60;2.97;;;;;;;;;;5015496;28;20461;-71
2023/03/30 09:05:17;;;;;;;10.80;2.93;;;;;;;;;;5015166;28;20504;-71
2023/03/30 09:07:48;;;;;;;10.13;3.03;;;;;;;;;;5015327;28;20784;-71
2023/03/30 09:10:16;;;;;;;6.80;2.30;;;;;;;;;;5015262;28;20521;-71
2023/03/30 09:12:44;;;;;;;6.87;2.70;;;;;;;;;;5015253;28;20449;-71
2023/03/30 09:15:16;;;;;;;13.00;3.13;;;;;;;;;;5015107;28;20461;-71
2023/03/30 09:17:45;;;;;;;12.40;3.17;;;;;;;;;;5015022;28;20437;-71
2023/03/30 09:20:16;;;;;;;7.73;2.97;;;;;;;;;;5014970;28;20448;-71
2023/03/30 09:22:44;;;;;;;12.80;3.20;;;;;;;;;;5014790;28;20977;-71
2023/03/30 09:25:16;;;;;;;8.40;2.50;;;;;;;;;;5014691;28;20448;-71
2023/03/30 09:27:46;;;;;;;7.00;3.40;;;;;;;;;;5015317;28;20455;-71
2023/03/30 09:30:18;;;;;;;8.10;3.30;;;;;;;;;;5014577;28;20914;-71
2023/03/30 09:32:48;;;;;;;5.70;2.80;;;;;;;;;;5015074;28;20430;-71
2023/03/30 09:35:17;;;;;;;5.43;2.23;;;;;;;;;;5014326;28;20476;-71
2023/03/30 09:37:45;;;;;;;4.33;2.53;;;;;;;;;;5014350;28;20452;-71
2023/03/30 09:40:21;;;;;;;10.53;2.90;;;;;;;;;;5014345;28;20484;-70
2023/03/30 09:42:52;;;;;;;8.80;3.40;;;;;;;;;;5014843;28;20444;-70
2023/03/30 09:45:23;;;;;;;5.67;2.80;;;;;;;;;;5014268;28;20438;-70
2023/03/30 09:47:50;;;;;;;6.10;2.60;;;;;;;;;;5015230;28;20849;-70
2023/03/30 09:50:19;;;;;;;14.33;3.23;;;;;;;;;;5014246;28;20970;-70
2023/03/30 09:52:55;;;;;;;6.03;2.73;;;;;;;;;;5014246;28;20446;-70
2023/03/30 09:55:27;;;;;;;9.60;2.80;;;;;;;;;;5014777;28;20533;-69
2023/03/30 09:57:54;;;;;;;4.37;2.67;;;;;;;;;;5013367;28;20446;-70
2023/03/30 10:00:30;;;;;;;2.30;2.10;;;;;;;;;;5014002;28;20961;-69
2023/03/30 10:02:57;;;;;;;7.10;2.77;;;;;;;;;;5014073;28;20496;-70
2023/03/30 10:05:25;;;;;;;4.90;2.57;;;;;;;;;;5013929;28;20458;-70
2023/03/30 10:07:56;;;;;;;7.20;2.60;;;;;;;;;;5014251;28;20518;-69
2023/03/30 10:10:33;;;;;;;7.50;2.70;;;;;;;;;;5013844;28;20443;-70
2023/03/30 10:13:05;;;;;;;4.27;2.20;;;;;;;;;;5013845;28;20452;-69
2023/03/30 10:15:36;;;;;;;9.33;2.50;;;;;;;;;;5013527;28;20497;-70
2023/03/30 10:18:15;;;;;;;5.13;2.43;;;;;;;;;;5014481;28;20463;-70
2023/03/30 10:20:43;;;;;;;3.70;2.33;;;;;;;;;;5013367;28;20446;-70
2023/03/30 10:23:14;;;;;;;6.63;2.40;;;;;;;;;;5013894;28;20781;-71
2023/03/30 10:25:42;;;;;;;6.23;2.47;;;;;;;;;;5013843;28;20439;-70
2023/03/30 10:28:16;;;;;;;4.70;2.20;;;;;;;;;;5013914;28;20944;-70
2023/03/30 10:30:50;;;;;;;7.47;2.00;;;;;;;;;;5012834;28;20431;-74
2023/03/30 10:33:17;;;;;;;8.77;2.40;;;;;;;;;;4994121;28;20856;-70
2023/03/30 10:35:47;;;;;;;7.43;2.30;;;;;;;;;;4993154;28;20565;-70
2023/03/30 10:38:15;;;;;;;5.00;2.40;;;;;;;;;;4993795;28;20437;-70
2023/03/30 10:40:43;;;;;;;4.10;2.00;;;;;;;;;;4993883;28;20543;-70
2023/03/30 10:43:13;;;;;;;6.73;2.30;;;;;;;;;;4993867;28;20527;-70
2023/03/30 10:45:42;;;;;;;6.17;2.23;;;;;;;;;;4993833;28;20443;-70
2023/03/30 10:48:33;;;;;;;4.50;2.20;;;;;;;;;;4994080;28;20503;-70
2023/03/30 10:51:06;;;;;;;11.60;2.97;;;;;;;;;;4979006;28;20475;-70
2023/03/30 10:53:39;;;;;;;7.77;2.60;;;;;;;;;;4993701;28;20428;-69
2023/03/30 10:56:13;;;;;;;8.43;2.27;;;;;;;;;;4993551;28;21064;-70
2023/03/30 10:58:55;;;;;;;6.43;2.47;;;;;;;;;;4992567;28;20442;-69
2023/03/30 11:01:27;;;;;;;5.57;2.37;;;;;;;;;;4998832;28;20955;-69
2023/03/30 11:03:56;;;;;;;12.37;4.60;;;;;;;;;;5014124;28;20523;-69
2023/03/30 11:06:26;;;;;;;6.03;2.20;;;;;;;;;;5013003;28;20450;-69
2023/03/30 11:08:56;;;;;;;8.00;3.07;;;;;;;;;;5015663;28;20518;-71
2023/03/30 11:11:25;;;;;;;5.83;2.77;;;;;;;;;;5017389;28;20537;-69
2023/03/30 11:13:55;;;;;;;10.33;2.50;;;;;;;;;;5017848;28;20453;-70
2023/03/30 11:16:26;;;;;;;7.50;3.00;;;;;;;;;;5017090;28;21010;-69
2023/03/30 11:18:55;;;;;;;8.87;4.40;;;;;;;;;;5017891;28;20787;-70
2023/03/30 11:21:25;;;;;;;7.67;3.00;;;;;;;;;;5016616;28;20443;-71
2023/03/30 11:23:55;;;;;;;5.60;2.53;;;;;;;;;;5017410;28;20781;-68
2023/03/30 11:26:25;;;;;;;8.53;3.00;;;;;;;;;;5017213;28;20451;-69
2023/03/30 11:29:03;;;;;;;6.07;2.73;;;;;;;;;;5016874;28;20984;-69
2023/03/30 11:31:39;;;;;;;3.67;2.17;;;;;;;;;;5017029;28;20442;-69
2023/03/30 11:34:11;;;;;;;2.90;2.47;;;;;;;;;;5016980;28;20438;-69
2023/03/30 11:36:41;;;;;;;5.47;2.67;;;;;;;;;;5017014;28;20463;-69
2023/03/30 11:39:13;;;;;;;7.50;2.63;;;;;;;;;;5016700;28;20496;-69
2023/03/30 11:41:43;;;;;;;9.57;2.80;;;;;;;;;;5016495;28;20462;-78
2023/03/30 11:44:11;;;;;;;5.77;2.10;;;;;;;;;;5016417;28;20455;-70
2023/03/30 11:46:41;;;;;;;9.27;2.90;;;;;;;;;;5016084;28;20451;-69
2023/03/30 11:49:17;;;;;;;4.17;2.57;;;;;;;;;;5016670;28;20809;-69
2023/03/30 11:51:51;;;;;;;14.03;3.93;;;;;;;;;;5016359;28;20927;-71
2023/03/30 11:54:33;;;;;;;6.40;2.80;;;;;;;;;;5016890;28;20524;-69
2023/03/30 11:57:06;;;;;;;10.37;2.90;;;;;;;;;;5016589;28;20468;-70
2023/03/30 11:59:40;;;;;;;6.20;2.60;;;;;;;;;;5016269;28;20424;-69
2023/03/30 12:02:11;;;;;;;10.07;3.37;;;;;;;;;;5016514;28;20457;-69
2023/03/30 12:04:41;;;;;;;5.13;2.90;;;;;;;;;;5016653;28;20936;-69
2023/03/30 12:07:13;;;;;;;10.60;3.87;;;;;;;;;;5016695;28;20787;-71
2023/03/30 12:09:43;;;;;;;8.13;3.03;;;;;;;;;;5016515;28;20442;-71
2023/03/30 12:12:14;;;;;;;10.20;3.10;;;;;;;;;;5016689;28;20522;-70
2023/03/30 12:14:47;;;;;;;10.50;3.27;;;;;;;;;;5016115;28;20470;-69
2023/03/30 12:17:24;;;;;;;4.87;3.40;;;;;;;;;;5016528;28;20492;-69
2023/03/30 12:19:53;;;;;;;11.77;5.37;;;;;;;;;;5015784;28;20486;-69
2023/03/30 12:22:24;;;;;;;10.37;3.40;;;;;;;;;;5016120;28;20443;-69
2023/03/30 12:24:55;;;;;;;16.87;4.03;;;;;;;;;;5016253;28;20439;-69
2023/03/30 12:27:22;;;;;;;9.80;3.77;;;;;;;;;;5015767;28;20440;-69
2023/03/30 12:29:51;;;;;;;6.27;3.20;;;;;;;;;;5016590;28;20806;-70
2023/03/30 12:32:23;;;;;;;11.90;3.77;;;;;;;;;;5016387;28;20517;-69
2023/03/30 12:34:50;;;;;;;10.60;3.83;;;;;;;;;;5015780;28;20517;-70
2023/03/30 12:37:20;;;;;;;9.77;3.00;;;;;;;;;;5015776;28;20493;-70
2023/03/30 12:39:49;;;;;;;11.70;3.70;;;;;;;;;;5015925;28;20447;-70
2023/03/30 12:42:25;;;;;;;10.23;2.83;;;;;;;;;;5015844;28;20538;-70
2023/03/30 12:45:01;;;;;;;9.03;3.20;;;;;;;;;;5015623;28;20435;-70
2023/03/30 12:47:37;;;;;;;14.40;4.43;;;;;;;;;;5015922;28;20446;-70
2023/03/30 12:50:16;;;;;;;4.40;2.33;;;;;;;;;;5015456;28;20438;-70
2023/03/30 12:52:47;;;;;;;13.63;3.57;;;;;;;;;;5016028;28;20903;-70
2023/03/30 12:55:20;;;;;;;10.47;3.43;;;;;;;;;;5015743;28;20794;-71
2023/03/30 12:57:58;;;;;;;7.30;2.83;;;;;;;;;;5015639;28;20893;-70
2023/03/30 13:00:33;;;;;;;5.40;2.90;;;;;;;;;;5015355;28;20441;-69
2023/03/30 13:03:03;;;;;;;9.80;3.20;;;;;;;;;;5015262;28;20525;-70
2023/03/30 13:05:31;;;;;;;11.20;3.80;;;;;;;;;;5015588;28;20954;-70
2023/03/30 13:08:03;;;;;;;11.10;3.40;;;;;;;;;;5015037;28;20530;-69
2023/03/30 13:10:37;;;;;;;10.47;4.33;;;;;;;;;;5015430;28;20439;-70
2023/03/30 13:13:06;;;;;;;7.43;3.13;;;;;;;;;;5015224;28;20533;-69
2023/03/30 13:15:35;;;;;;;9.73;3.13;;;;;;;;;;5015235;28;20458;-70
2023/03/30 13:18:03;;;;;;;9.67;3.30;;;;;;;;;;5015180;28;20839;-70
2023/03/30 13:20:32;;;;;;;7.47;3.13;;;;;;;;;;5014886;28;20458;-71
2023/03/30 13:23:01;;;;;;;6.93;2.90;;;;;;;;;;5014566;28;20514;-75
2023/03/30 13:25:38;;;;;;;5.37;2.63;;;;;;;;;;5014995;28;20442;-71
2023/03/30 13:28:20;;;;;;;6.13;3.30;;;;;;;;;;5015150;28;20438;-72
2023/03/30 13:30:49;;;;;;;9.50;4.03;;;;;;;;;;5014649;28;20445;-73
2023/03/30 13:33:18;;;;;;;8.67;4.10;;;;;;;;;;5014095;28;20439;-73
2023/03/30 13:35:49;;;;;;;16.60;4.40;;;;;;;;;;5014803;28;20479;-73
2023/03/30 13:38:26;;;;;;;12.13;4.40;;;;;;;;;;5014677;28;20524;-74
2023/03/30 13:40:57;;;;;;;8.90;3.67;;;;;;;;;;5014472;28;20440;-73
2023/03/30 13:43:29;;;;;;;6.20;3.07;;;;;;;;;;5014160;28;20468;-73
2023/03/30 13:46:00;;;;;;;10.23;2.97;;;;;;;;;;5014582;28;20469;-73
2023/03/30 13:48:39;;;;;;;12.37;3.37;;;;;;;;;;5014730;28;20430;-73
2023/03/30 13:51:07;;;;;;;20.43;3.60;;;;;;;;;;5014676;28;20434;-73
2023/03/30 13:53:39;;;;;;;6.83;2.70;;;;;;;;;;5014246;28;20955;-72
2023/03/30 13:56:07;;;;;;;8.83;3.60;;;;;;;;;;5014864;28;20458;-72
2023/03/30 13:58:35;;;;;;;6.20;2.40;;;;;;;;;;5014329;28;20497;-74
2023/03/30 14:01:06;;;;;;;8.63;3.30;;;;;;;;;;5014872;28;20446;-73
2023/03/30 14:03:35;;;;;;;7.20;3.40;;;;;;;;;;5014204;28;20440;-72
2023/03/30 14:06:07;;;;;;;14.07;3.00;;;;;;;;;;5014441;28;20538;-73
2023/03/30 14:08:35;;;;;;;8.27;3.00;;;;;;;;;;5014438;28;20886;-69
2023/03/30 14:11:05;;;;;;;11.20;3.27;;;;;;;;;;5014416;28;20530;-73
2023/03/30 14:13:33;;;;;;;6.37;2.60;;;;;;;;;;5014337;28;20529;-75
2023/03/30 14:16:01;;;;;;;9.70;4.20;;;;;;;;;;5014209;28;20495;-72
2023/03/30 14:18:30;;;;;;;13.57;3.80;;;;;;;;;;5013671;28;20485;-70
2023/03/30 14:20:58;;;;;;;7.73;2.87;;;;;;;;;;5013945;28;20517;-70
2023/03/30 14:23:29;;;;;;;10.17;3.70;;;;;;;;;;5014233;28;20445;-70
2023/03/30 14:25:58;;;;;;;9.80;3.10;;;;;;;;;;5013922;28;20436;-71
2023/03/30 14:28:27;;;;;;;9.73;3.27;;;;;;;;;;5014121;28;20448;-72
2023/03/30 14:30:55;;;;;;;8.97;3.53;;;;;;;;;;5014123;28;20449;-72
2023/03/30 14:33:23;;;;;;;9.47;3.70;;;;;;;;;;5013855;28;20532;-72
2023/03/30 14:35:53;;;;;;;7.03;3.03;;;;;;;;;;5013997;28;20477;-71
2023/03/30 14:38:22;;;;;;;5.87;3.50;;;;;;;;;;5013548;28;20524;-71
2023/03/30 14:40:50;;;;;;;5.20;2.90;;;;;;;;;;5013902;28;20437;-71
2023/03/30 14:43:20;;;;;;;5.03;2.90;;;;;;;;;;5013355;28;20460;-71
2023/03/30 14:45:48;;;;;;;6.10;3.20;;;;;;;;;;5013638;28;20457;-70
2023/03/30 14:48:20;;;;;;;10.83;4.10;;;;;;;;;;5013862;28;20465;-70
2023/03/30 14:50:47;;;;;;;7.70;3.03;;;;;;;;;;5013822;28;20438;-70
2023/03/30 14:53:16;;;;;;;9.60;2.97;;;;;;;;;;5013541;28;20439;-70
2023/03/30 14:55:44;;;;;;;6.13;2.63;;;;;;;;;;5013631;28;20470;-70
2023/03/30 14:58:14;;;;;;;5.10;2.13;;;;;;;;;;5012985;28;20493;-70